« Back
NWS Peachtree City, Ga » Text Product » AHN Terminal Aerodrome Forecast


Printer-friendly Version
Current Version              Previous Versions:   1  2  3  4  5  6  7  8  9  

Terminal Aerodrome Forecast

326
FTUS42 KFFC 271316 AAA
TAFAHN
TAF AMD
KAHN 271316Z 2713/2812 06006KT P6SM BKN015
     FM271500 08008KT P6SM BKN035
     FM271700 08010KT P6SM BKN040
     FM280300 06005KT P6SM FEW060
     FM280900 06003KT P6SM SKC=



USA.gov is the U.S. government's official web portal to all federal, state and local government web resources and services.